Time;durP1;ratioP1;P1;durP2;ratioP2;P2;SDS_P1;SDS_P2;PMS_P1;PMS_P2;Temp;Humidity;BMP_temperature;BMP_pressure;BME280_temperature;BME280_humidity;BME280_pressure;Samples;Min_cycle;Max_cycle;Signal;HPM_P1;HPM_P2
2021/12/16 00:09:15;;;;;;;;;;;5.00;99.90;;;;;;5015191;28;19909;-73
2021/12/16 00:35:56;;;;;;;;;;;4.50;99.90;;;;;;5013254;28;19936;-73
2021/12/16 00:38:22;;;;;;;;;;;4.50;99.90;;;;;;5014601;28;19905;-73
2021/12/16 00:40:47;;;;;;;;;;;4.60;99.90;;;;;;5014485;28;19995;-73
2021/12/16 00:43:28;;;;;;;;;;;4.60;99.90;;;;;;5013197;28;19959;-73
2021/12/16 00:46:12;;;;;;;;;;;4.60;99.90;;;;;;5014373;28;19905;-72
2021/12/16 00:54:11;;;;;;;;;;;4.70;99.90;;;;;;5014403;28;19905;-73
2021/12/16 00:56:38;;;;;;;;;;;4.50;99.90;;;;;;5014122;28;20000;-73
2021/12/16 00:59:06;;;;;;;;;;;4.50;99.90;;;;;;5014217;28;19905;-73
2021/12/16 01:09:21;;;;;;;;;;;4.60;99.90;;;;;;5013932;28;19909;-73
2021/12/16 01:37:01;;;;;;;;;;;4.40;99.90;;;;;;5013502;28;19909;-73
2021/12/16 01:47:45;;;;;;;;;;;4.70;99.90;;;;;;5057406;22;19964;-91
2021/12/16 01:50:17;;;;;;;;;;;4.50;99.90;;;;;;4995292;28;19921;-92
2021/12/16 01:55:22;;;;;;;;;;;4.50;99.90;;;;;;5034131;28;19975;-93
2021/12/16 01:57:54;;;;;;;;;;;4.40;99.90;;;;;;5002613;28;20386;-93
2021/12/16 02:00:27;;;;;;;;;;;4.50;99.90;;;;;;4996490;28;20520;-93
2021/12/16 02:02:59;;;;;;;;;;;4.60;99.90;;;;;;4996201;28;19941;-93
2021/12/16 02:10:37;;;;;;;;;;;4.60;99.90;;;;;;5012592;28;20298;-92
2021/12/16 02:31:03;;;;;;;;;;;4.30;99.90;;;;;;5012124;28;19913;-92
2021/12/16 02:32:47;;;;;;;;;;;4.40;99.90;;;;;;4999496;28;19931;-93
2021/12/16 02:37:47;;;;;;;;;;;4.60;99.90;;;;;;5011807;28;19905;-93
2021/12/16 02:40:14;;;;;;;;;;;4.70;99.90;;;;;;4995647;28;20355;-93
2021/12/16 02:42:54;;;;;;;;;;;4.80;99.90;;;;;;4995899;28;19909;-93
2021/12/16 02:50:48;;;;;;;;;;;4.80;99.90;;;;;;5016028;28;19905;-93
2021/12/16 02:53:14;;;;;;;;;;;4.50;99.90;;;;;;5000021;28;20247;-93
2021/12/16 02:55:40;;;;;;;;;;;4.50;99.90;;;;;;4999589;28;19917;-94
2021/12/16 02:58:05;;;;;;;;;;;4.40;99.90;;;;;;5000153;28;19925;-93
2021/12/16 03:00:38;;;;;;;;;;;4.30;99.90;;;;;;4999701;28;19906;-93
2021/12/16 03:03:04;;;;;;;;;;;4.40;99.90;;;;;;4999582;28;19906;-93
2021/12/16 03:05:29;;;;;;;;;;;4.20;99.90;;;;;;4999455;28;19906;-95
2021/12/16 03:07:55;;;;;;;;;;;4.30;99.90;;;;;;4999579;28;19905;-92
2021/12/16 03:13:11;;;;;;;;;;;4.30;99.90;;;;;;5015664;28;20313;-93
2021/12/16 03:18:41;;;;;;;;;;;4.20;99.90;;;;;;5025005;28;19906;-93
2021/12/16 03:21:11;;;;;;;;;;;4.20;99.90;;;;;;5014860;28;19944;-93
2021/12/16 03:23:54;;;;;;;;;;;4.00;99.90;;;;;;5000157;28;19905;-93
2021/12/16 03:39:41;;;;;;;;;;;3.90;99.90;;;;;;5015016;28;19952;-93
2021/12/16 03:42:07;;;;;;;;;;;3.90;99.90;;;;;;4998819;28;19912;-91
2021/12/16 03:44:49;;;;;;;;;;;3.90;99.90;;;;;;4999008;28;19906;-94
2021/12/16 03:47:16;;;;;;;;;;;4.10;99.90;;;;;;4998455;28;20015;-92
2021/12/16 03:49:41;;;;;;;;;;;3.80;99.90;;;;;;4998650;28;19913;-93
2021/12/16 03:52:08;;;;;;;;;;;3.70;99.90;;;;;;4998569;28;19906;-93
2021/12/16 03:54:49;;;;;;;;;;;3.70;99.90;;;;;;4998494;28;19917;-93
2021/12/16 03:57:16;;;;;;;;;;;3.60;99.90;;;;;;4998451;28;19921;-93
2021/12/16 03:59:42;;;;;;;;;;;3.80;99.90;;;;;;4998473;28;19913;-92
2021/12/16 04:02:09;;;;;;;;;;;3.90;99.90;;;;;;4998925;28;19905;-93
2021/12/16 04:04:35;;;;;;;;;;;4.20;99.90;;;;;;4998544;28;19951;-93
2021/12/16 04:07:01;;;;;;;;;;;4.10;99.90;;;;;;4998499;28;19949;-93
2021/12/16 04:09:27;;;;;;;;;;;4.00;99.90;;;;;;4998897;28;19909;-92
2021/12/16 04:12:07;;;;;;;;;;;4.00;99.90;;;;;;4998715;28;20429;-93
2021/12/16 04:14:33;;;;;;;;;;;3.90;99.90;;;;;;4998244;28;19906;-93
2021/12/16 04:17:02;;;;;;;;;;;3.90;99.90;;;;;;4998285;28;20363;-93
2021/12/16 04:19:29;;;;;;;;;;;4.00;99.90;;;;;;5000272;28;19909;-93
2021/12/16 04:21:59;;;;;;;;;;;3.80;99.90;;;;;;5000258;28;19945;-92
2021/12/16 04:24:24;;;;;;;;;;;3.80;99.90;;;;;;4998835;28;19959;-92
2021/12/16 04:26:51;;;;;;;;;;;3.80;99.90;;;;;;4997857;28;19909;-93
2021/12/16 04:29:18;;;;;;;;;;;4.00;99.90;;;;;;4997844;28;19936;-93
2021/12/16 04:31:44;;;;;;;;;;;4.00;99.90;;;;;;4997935;28;20378;-91
2021/12/16 04:34:09;;;;;;;;;;;4.20;99.90;;;;;;4997973;28;19909;-93
2021/12/16 04:36:36;;;;;;;;;;;4.20;99.90;;;;;;4997831;28;19905;-93
2021/12/16 04:39:07;;;;;;;;;;;4.30;99.90;;;;;;4997776;28;20028;-93
2021/12/16 04:41:33;;;;;;;;;;;4.30;99.90;;;;;;4998359;28;20408;-91
2021/12/16 04:43:59;;;;;;;;;;;4.20;99.90;;;;;;5010982;28;19909;-92
2021/12/16 04:46:27;;;;;;;;;;;4.20;99.90;;;;;;5021948;28;19965;-92
2021/12/16 04:48:54;;;;;;;;;;;4.10;99.90;;;;;;5004451;28;19973;-91
2021/12/16 04:51:20;;;;;;;;;;;3.90;99.90;;;;;;4998049;28;19916;-91
2021/12/16 04:53:46;;;;;;;;;;;3.80;99.90;;;;;;4997937;28;19968;-92
2021/12/16 04:56:13;;;;;;;;;;;4.00;99.90;;;;;;5001302;28;19905;-94
2021/12/16 04:58:39;;;;;;;;;;;3.80;99.90;;;;;;5022846;28;19893;-92
2021/12/16 05:01:05;;;;;;;;;;;3.70;99.90;;;;;;5022999;28;19897;-94
2021/12/16 05:03:30;;;;;;;;;;;3.60;99.90;;;;;;5022933;28;19919;-93
2021/12/16 05:05:56;;;;;;;;;;;3.60;99.90;;;;;;5022390;28;19909;-94
2021/12/16 05:08:22;;;;;;;;;;;3.60;99.90;;;;;;5022392;28;19893;-93
2021/12/16 05:10:51;;;;;;;;;;;3.90;99.90;;;;;;5013303;28;20357;-92
2021/12/16 05:13:19;;;;;;;;;;;3.90;99.90;;;;;;4997916;28;19944;-92
2021/12/16 05:15:46;;;;;;;;;;;4.00;99.90;;;;;;4997125;28;19912;-91
2021/12/16 05:18:13;;;;;;;;;;;4.10;99.90;;;;;;4997362;28;19905;-92
2021/12/16 05:20:43;;;;;;;;;;;4.00;99.90;;;;;;4996813;28;20417;-91
2021/12/16 05:28:27;;;;;;;;;;;4.00;99.90;;;;;;5013332;28;19909;-92
2021/12/16 05:30:53;;;;;;;;;;;4.00;99.90;;;;;;4997379;28;19949;-91
2021/12/16 05:33:19;;;;;;;;;;;3.90;99.90;;;;;;5013660;28;19933;-91
2021/12/16 05:35:45;;;;;;;;;;;3.80;99.90;;;;;;4996631;28;19992;-91
2021/12/16 05:38:11;;;;;;;;;;;3.70;99.90;;;;;;4999963;28;19955;-91
2021/12/16 05:40:37;;;;;;;;;;;3.70;99.90;;;;;;5001134;28;19905;-91
2021/12/16 05:43:09;;;;;;;;;;;3.80;99.90;;;;;;5000130;28;19905;-91
2021/12/16 05:45:35;;;;;;;;;;;3.90;99.90;;;;;;4997384;28;19905;-91
2021/12/16 05:48:02;;;;;;;;;;;3.90;99.90;;;;;;4996828;28;19913;-91
2021/12/16 05:50:29;;;;;;;;;;;3.80;99.90;;;;;;4997017;28;19916;-91
2021/12/16 05:52:54;;;;;;;;;;;3.80;99.90;;;;;;4996956;28;19905;-92
2021/12/16 05:55:21;;;;;;;;;;;3.80;99.90;;;;;;4996863;28;20024;-92
2021/12/16 05:57:47;;;;;;;;;;;3.80;99.90;;;;;;4996796;28;19906;-93
2021/12/16 06:00:33;;;;;;;;;;;4.00;99.90;;;;;;4996581;28;19911;-92
2021/12/16 06:02:59;;;;;;;;;;;4.00;99.90;;;;;;4996304;28;19911;-91
2021/12/16 06:05:25;;;;;;;;;;;3.90;99.90;;;;;;4996173;28;20377;-92
2021/12/16 06:07:51;;;;;;;;;;;3.80;99.90;;;;;;4996449;28;19988;-92
2021/12/16 06:13:02;;;;;;;;;;;3.70;99.90;;;;;;5013903;28;19905;-91
2021/12/16 06:28:49;;;;;;;;;;;3.60;99.90;;;;;;5013414;28;19909;-91
2021/12/16 06:31:15;;;;;;;;;;;3.70;99.90;;;;;;4996166;28;19992;-92
2021/12/16 06:33:54;;;;;;;;;;;3.60;99.90;;;;;;4995830;28;19983;-91
2021/12/16 06:36:37;;;;;;;;;;;3.50;99.90;;;;;;4990261;28;19973;-92
2021/12/16 06:39:03;;;;;;;;;;;3.50;99.90;;;;;;4996862;28;20484;-92
2021/12/16 06:41:34;;;;;;;;;;;3.70;99.90;;;;;;4991415;28;19940;-93
2021/12/16 06:44:05;;;;;;;;;;;3.70;99.90;;;;;;4992292;28;19910;-92
2021/12/16 06:46:34;;;;;;;;;;;3.70;99.90;;;;;;5013380;28;20362;-92
2021/12/16 06:49:01;;;;;;;;;;;3.60;99.90;;;;;;4997199;28;19921;-93
2021/12/16 06:51:51;;;;;;;;;;;3.70;99.90;;;;;;4997404;28;19960;-92
2021/12/16 06:54:21;;;;;;;;;;;3.60;99.90;;;;;;5014595;28;19906;-92
2021/12/16 06:59:23;;;;;;;;;;;3.70;99.90;;;;;;5014322;28;19985;-93
2021/12/16 07:02:04;;;;;;;;;;;3.80;99.90;;;;;;4992213;28;19905;-93
2021/12/16 07:04:30;;;;;;;;;;;3.80;99.90;;;;;;4996067;28;19910;-92
2021/12/16 07:06:56;;;;;;;;;;;3.90;99.90;;;;;;4994971;28;20393;-95
2021/12/16 07:09:22;;;;;;;;;;;3.80;99.90;;;;;;4995527;28;19948;-92
2021/12/16 07:11:52;;;;;;;;;;;3.90;99.90;;;;;;4994980;28;19905;-93
2021/12/16 07:14:19;;;;;;;;;;;4.10;99.90;;;;;;5008325;28;19960;-93
2021/12/16 07:16:47;;;;;;;;;;;4.20;99.90;;;;;;4996591;28;20397;-93
2021/12/16 07:19:13;;;;;;;;;;;4.20;99.90;;;;;;4995239;28;19906;-94
2021/12/16 07:21:39;;;;;;;;;;;4.30;99.90;;;;;;4997840;28;19906;-94
2021/12/16 07:24:20;;;;;;;;;;;4.30;99.90;;;;;;4997481;28;20354;-94
2021/12/16 07:26:55;;;;;;;;;;;4.10;99.90;;;;;;5009657;28;19912;-93
2021/12/16 07:29:28;;;;;;;;;;;4.10;99.90;;;;;;5008855;28;19909;-93
2021/12/16 07:35:25;;;;;;;;;;;4.00;99.90;;;;;;5024156;28;20377;-93
2021/12/16 07:37:50;;;;;;;;;;;4.10;99.90;;;;;;5005131;28;19916;-92
2021/12/16 07:40:18;;;;;;;;;;;4.00;99.90;;;;;;5010870;28;19906;-92
2021/12/16 07:43:41;;;;;;;;;;;4.00;99.90;;;;;;5003178;28;20593;-93
2021/12/16 07:45:34;;;;;;;;;;;4.00;99.90;;;;;;5007022;28;19906;-93
2021/12/16 07:48:00;;;;;;;;;;;4.00;99.90;;;;;;5015930;28;19917;-92
2021/12/16 07:50:26;;;;;;;;;;;4.10;99.90;;;;;;5016095;28;19909;-92
2021/12/16 07:52:52;;;;;;;;;;;4.10;99.90;;;;;;4998275;28;19945;-93
2021/12/16 07:55:21;;;;;;;;;;;4.10;99.90;;;;;;5014668;28;19912;-89
2021/12/16 07:57:47;;;;;;;;;;;4.20;99.90;;;;;;5019507;28;19901;-90
2021/12/16 08:00:24;;;;;;;;;;;4.40;99.90;;;;;;5017214;28;19894;-92
2021/12/16 08:02:51;;;;;;;;;;;4.30;99.90;;;;;;5020311;28;19910;-92
2021/12/16 08:05:35;;;;;;;;;;;4.30;99.90;;;;;;5016969;28;19905;-91
2021/12/16 08:08:03;;;;;;;;;;;4.30;99.90;;;;;;4995961;28;19906;-91
2021/12/16 08:10:28;;;;;;;;;;;4.20;99.90;;;;;;5014674;28;19940;-90
2021/12/16 08:12:54;;;;;;;;;;;4.20;99.90;;;;;;4999338;28;19905;-90
2021/12/16 08:15:20;;;;;;;;;;;4.20;99.90;;;;;;5015072;28;19916;-91
2021/12/16 08:17:46;;;;;;;;;;;4.30;99.90;;;;;;5014790;28;19906;-90
2021/12/16 08:20:16;;;;;;;;;;;4.30;99.90;;;;;;5015125;28;19912;-90
2021/12/16 08:22:49;;;;;;;;;;;4.40;99.90;;;;;;5014389;28;19925;-91
2021/12/16 08:25:16;;;;;;;;;;;4.40;99.90;;;;;;4998329;28;19905;-90
2021/12/16 08:27:45;;;;;;;;;;;4.30;99.90;;;;;;5015318;28;19913;-92
2021/12/16 08:30:12;;;;;;;;;;;4.20;99.90;;;;;;4998148;28;19913;-92
2021/12/16 08:32:38;;;;;;;;;;;4.20;99.90;;;;;;4995045;28;19906;-91
2021/12/16 08:35:05;;;;;;;;;;;4.20;99.90;;;;;;5008553;28;19931;-91
2021/12/16 08:37:31;;;;;;;;;;;4.30;99.90;;;;;;4996965;28;19913;-91
2021/12/16 08:39:57;;;;;;;;;;;4.20;99.90;;;;;;5012482;28;19909;-92
2021/12/16 08:42:22;;;;;;;;;;;4.10;99.90;;;;;;5013072;28;19905;-91
2021/12/16 08:44:48;;;;;;;;;;;4.00;99.90;;;;;;5004135;28;19914;-92
2021/12/16 08:47:15;;;;;;;;;;;4.00;99.90;;;;;;5008153;28;19986;-92
2021/12/16 08:49:41;;;;;;;;;;;4.20;99.90;;;;;;5004583;28;19936;-92
2021/12/16 08:52:13;;;;;;;;;;;4.20;99.90;;;;;;5016181;28;20286;-92
2021/12/16 08:54:39;;;;;;;;;;;4.40;99.90;;;;;;4999667;28;19909;-92
2021/12/16 08:57:05;;;;;;;;;;;4.40;99.90;;;;;;5014967;28;19917;-90
2021/12/16 08:59:50;;;;;;;;;;;4.70;99.90;;;;;;5013020;28;19932;-90
2021/12/16 09:02:17;;;;;;;;;;;4.90;99.90;;;;;;4994059;28;19945;-91
2021/12/16 09:04:43;;;;;;;;;;;5.00;99.90;;;;;;4997346;28;19920;-90
2021/12/16 09:07:09;;;;;;;;;;;4.90;99.90;;;;;;5023354;28;19905;-90
2021/12/16 09:09:36;;;;;;;;;;;4.80;99.90;;;;;;5016160;28;20290;-90
2021/12/16 09:12:13;;;;;;;;;;;4.80;99.90;;;;;;4997333;28;20367;-89
2021/12/16 09:14:39;;;;;;;;;;;5.00;99.90;;;;;;5013402;28;19912;-90
2021/12/16 09:17:09;;;;;;;;;;;5.00;99.90;;;;;;4993872;28;19925;-90
2021/12/16 09:19:36;;;;;;;;;;;5.10;99.90;;;;;;5012271;28;19916;-88
2021/12/16 09:22:02;;;;;;;;;;;5.20;99.90;;;;;;5018555;28;19949;-90
2021/12/16 09:24:28;;;;;;;;;;;5.10;99.90;;;;;;5006988;28;19916;-93
2021/12/16 09:26:54;;;;;;;;;;;5.00;99.90;;;;;;5004566;28;20684;-90
2021/12/16 09:29:19;;;;;;;;;;;5.00;99.90;;;;;;5012873;28;19917;-89
2021/12/16 09:31:45;;;;;;;;;;;5.00;99.90;;;;;;4997559;28;19988;-90
2021/12/16 09:34:11;;;;;;;;;;;4.90;99.90;;;;;;4996740;28;19913;-90
2021/12/16 09:36:38;;;;;;;;;;;5.30;99.90;;;;;;4995771;28;19948;-90
2021/12/16 09:39:06;;;;;;;;;;;5.30;99.90;;;;;;4997348;28;19906;-91
2021/12/16 09:41:32;;;;;;;;;;;5.20;99.90;;;;;;4998571;28;19959;-90
2021/12/16 09:43:59;;;;;;;;;;;6.20;99.90;;;;;;4993809;28;19918;-90
2021/12/16 09:46:26;;;;;;;;;;;7.30;99.90;;;;;;5012881;28;19905;-90
2021/12/16 09:48:52;;;;;;;;;;;7.90;99.90;;;;;;5012891;28;19913;-89
2021/12/16 09:51:22;;;;;;;;;;;8.60;99.90;;;;;;4994523;28;19932;-90
2021/12/16 09:53:48;;;;;;;;;;;9.10;99.90;;;;;;5012020;28;20001;-90
2021/12/16 09:56:14;;;;;;;;;;;9.50;99.90;;;;;;4996270;28;19905;-91
2021/12/16 09:58:42;;;;;;;;;;;9.90;99.40;;;;;;4995489;28;20286;-90
2021/12/16 10:01:10;;;;;;;;;;;9.80;97.30;;;;;;4995961;28;19905;-89
2021/12/16 10:03:39;;;;;;;;;;;9.40;97.50;;;;;;5012613;28;19976;-90
2021/12/16 10:06:05;;;;;;;;;;;8.90;98.90;;;;;;5012440;28;19979;-90
2021/12/16 10:08:30;;;;;;;;;;;8.50;99.00;;;;;;5011517;28;20384;-89
2021/12/16 10:11:05;;;;;;;;;;;8.90;99.90;;;;;;4995682;28;19960;-89
2021/12/16 10:13:41;;;;;;;;;;;8.90;98.90;;;;;;4992177;28;19906;-90
2021/12/16 10:18:33;;;;;;;;;;;7.90;99.90;;;;;;5012720;28;19941;-89
2021/12/16 10:21:00;;;;;;;;;;;7.50;99.90;;;;;;5012845;28;19911;-89
2021/12/16 10:23:29;;;;;;;;;;;7.40;99.90;;;;;;4994225;28;19906;-91
2021/12/16 10:26:00;;;;;;;;;;;7.40;99.90;;;;;;5004335;28;20004;-93
2021/12/16 10:28:28;;;;;;;;;;;7.00;99.90;;;;;;5003098;28;19893;-93
2021/12/16 10:30:54;;;;;;;;;;;6.50;99.90;;;;;;5026266;28;19967;-93
2021/12/16 10:33:25;;;;;;;;;;;6.50;99.90;;;;;;5019548;28;19910;-93
2021/12/16 10:36:10;;;;;;;;;;;6.40;99.90;;;;;;5035733;28;19898;-92
2021/12/16 10:38:55;;;;;;;;;;;6.40;99.90;;;;;;4998170;28;19917;-92
2021/12/16 10:41:24;;;;;;;;;;;6.30;99.90;;;;;;5021761;28;19906;-95
2021/12/16 10:43:52;;;;;;;;;;;6.30;99.90;;;;;;5023245;28;20270;-91
2021/12/16 10:46:20;;;;;;;;;;;6.40;99.90;;;;;;5023461;28;19893;-93
2021/12/16 10:48:51;;;;;;;;;;;6.50;99.90;;;;;;5005448;28;19960;-93
2021/12/16 10:51:20;;;;;;;;;;;6.80;99.90;;;;;;5005413;28;19960;-93
2021/12/16 10:53:53;;;;;;;;;;;7.60;99.90;;;;;;5024185;28;19967;-93
2021/12/16 10:56:21;;;;;;;;;;;8.80;99.90;;;;;;5012577;28;19906;-94
2021/12/16 10:59:04;;;;;;;;;;;9.80;99.90;;;;;;5011661;28;19910;-94
2021/12/16 11:01:30;;;;;;;;;;;10.20;98.00;;;;;;5006565;28;20221;-93
2021/12/16 11:03:56;;;;;;;;;;;10.20;96.60;;;;;;5005671;28;19906;-94
2021/12/16 11:06:26;;;;;;;;;;;9.90;95.40;;;;;;5011276;28;19992;-94
2021/12/16 11:08:52;;;;;;;;;;;9.50;95.00;;;;;;5008571;28;19913;-94
2021/12/16 11:11:26;;;;;;;;;;;9.20;94.30;;;;;;5010057;28;19913;-94
2021/12/16 11:14:01;;;;;;;;;;;8.70;97.70;;;;;;5031530;28;19905;-93
2021/12/16 11:16:33;;;;;;;;;;;8.50;99.10;;;;;;5013307;28;19905;-93
2021/12/16 11:18:59;;;;;;;;;;;8.30;99.00;;;;;;5031194;28;19916;-93
2021/12/16 11:21:32;;;;;;;;;;;8.10;99.10;;;;;;5008866;28;19905;-93
2021/12/16 11:23:57;;;;;;;;;;;7.90;99.90;;;;;;5010876;28;19909;-93
2021/12/16 11:26:28;;;;;;;;;;;7.70;99.90;;;;;;5024409;28;19945;-93
2021/12/16 11:28:54;;;;;;;;;;;7.80;99.90;;;;;;5007828;28;19916;-91
2021/12/16 11:31:25;;;;;;;;;;;7.70;99.90;;;;;;5004846;28;19909;-94
2021/12/16 11:33:52;;;;;;;;;;;7.70;99.90;;;;;;5021140;28;19909;-93
2021/12/16 11:36:30;;;;;;;;;;;7.90;99.90;;;;;;5012799;28;19906;-94
2021/12/16 11:39:10;;;;;;;;;;;7.70;99.90;;;;;;5008370;28;19952;-93
2021/12/16 11:41:35;;;;;;;;;;;7.70;99.90;;;;;;5023510;28;19909;-93
2021/12/16 11:44:04;;;;;;;;;;;7.60;99.90;;;;;;5010108;28;20021;-93
2021/12/16 11:46:45;;;;;;;;;;;7.70;99.90;;;;;;5026292;28;19909;-94
2021/12/16 11:49:14;;;;;;;;;;;7.70;99.90;;;;;;5032295;28;19973;-94
2021/12/16 11:51:45;;;;;;;;;;;7.50;99.90;;;;;;5014840;28;19940;-94
2021/12/16 11:54:16;;;;;;;;;;;7.20;99.90;;;;;;5017548;28;19913;-94
2021/12/16 11:56:48;;;;;;;;;;;7.20;99.90;;;;;;5014257;28;19938;-94
2021/12/16 11:59:23;;;;;;;;;;;7.10;99.90;;;;;;5028307;28;20419;-94
2021/12/16 12:01:49;;;;;;;;;;;6.90;99.90;;;;;;5014591;28;19932;-94
2021/12/16 12:04:14;;;;;;;;;;;6.90;99.90;;;;;;5030914;28;19933;-93
2021/12/16 12:06:44;;;;;;;;;;;6.90;99.90;;;;;;5012697;28;19960;-94
2021/12/16 12:09:10;;;;;;;;;;;6.70;99.90;;;;;;5032301;28;19957;-94
2021/12/16 12:11:40;;;;;;;;;;;6.80;99.90;;;;;;5033471;28;19910;-94
2021/12/16 12:14:05;;;;;;;;;;;6.80;99.90;;;;;;5030581;28;19912;-94
2021/12/16 12:16:36;;;;;;;;;;;6.60;99.90;;;;;;5016999;28;19996;-94
2021/12/16 12:19:09;;;;;;;;;;;6.60;99.90;;;;;;5025735;28;20305;-94
2021/12/16 12:21:34;;;;;;;;;;;6.60;99.90;;;;;;5014172;28;19912;-94
2021/12/16 12:24:06;;;;;;;;;;;6.70;99.90;;;;;;5013514;28;19949;-94
2021/12/16 12:26:34;;;;;;;;;;;6.80;99.90;;;;;;5014567;28;19949;-93
2021/12/16 12:29:03;;;;;;;;;;;6.50;99.90;;;;;;5032195;28;19901;-94
2021/12/16 12:31:31;;;;;;;;;;;6.30;99.90;;;;;;5014184;28;19928;-94
2021/12/16 12:33:57;;;;;;;;;;;6.20;99.90;;;;;;5016264;28;19996;-94
2021/12/16 12:36:26;;;;;;;;;;;6.10;99.90;;;;;;5014186;28;19905;-93
2021/12/16 12:39:00;;;;;;;;;;;6.00;99.90;;;;;;5017075;28;19893;-93
2021/12/16 12:41:26;;;;;;;;;;;5.90;99.90;;;;;;5033271;28;19921;-94
2021/12/16 12:43:52;;;;;;;;;;;5.90;99.90;;;;;;5017236;28;19906;-93
2021/12/16 12:46:18;;;;;;;;;;;5.90;99.90;;;;;;5034077;28;19909;-94
2021/12/16 12:48:44;;;;;;;;;;;6.00;99.90;;;;;;5015100;28;20362;-94
2021/12/16 12:51:09;;;;;;;;;;;6.30;99.90;;;;;;5030831;28;19948;-94
2021/12/16 12:53:38;;;;;;;;;;;6.30;99.90;;;;;;5013360;28;19977;-94
2021/12/16 12:56:10;;;;;;;;;;;6.40;99.90;;;;;;5011303;28;19920;-94
2021/12/16 12:58:46;;;;;;;;;;;6.60;99.90;;;;;;5022042;28;20321;-94
2021/12/16 13:01:38;;;;;;;;;;;6.40;99.90;;;;;;5025589;28;19905;-94
2021/12/16 13:04:08;;;;;;;;;;;6.40;99.90;;;;;;5008895;28;19921;-94
2021/12/16 13:06:55;;;;;;;;;;;6.50;99.90;;;;;;5015252;28;19912;-94
2021/12/16 13:09:31;;;;;;;;;;;6.70;99.90;;;;;;5029565;28;19974;-94
2021/12/16 13:12:01;;;;;;;;;;;6.80;99.90;;;;;;5011265;28;19906;-94
2021/12/16 13:14:46;;;;;;;;;;;7.00;99.90;;;;;;5028614;28;19905;-94
2021/12/16 13:23:18;;;;;;;;;;;7.40;99.90;;;;;;5029594;28;19906;-93
2021/12/16 13:32:07;;;;;;;;;;;7.50;99.90;;;;;;4973365;28;19906;-91
2021/12/16 13:34:41;;;;;;;;;;;7.80;99.90;;;;;;5019895;28;20267;-92
2021/12/16 13:37:14;;;;;;;;;;;8.00;99.90;;;;;;5000214;28;19910;-91
2021/12/16 13:39:44;;;;;;;;;;;7.90;99.90;;;;;;5023451;28;19906;-93
2021/12/16 13:42:15;;;;;;;;;;;7.80;99.90;;;;;;5018888;28;19918;-92
2021/12/16 13:44:53;;;;;;;;;;;7.70;99.90;;;;;;5022302;28;19990;-92
2021/12/16 13:48:07;;;;;;;;;;;7.30;99.90;;;;;;5009928;28;19905;-91
2021/12/16 14:09:59;;;;;;;;;;;6.70;99.90;;;;;;5011038;28;19920;-79
2021/12/16 14:15:21;;;;;;;;;;;6.40;99.90;;;;;;5012446;28;19905;-78
2021/12/16 14:23:42;;;;;;;;;;;6.30;99.90;;;;;;5005792;28;19913;-80
2021/12/16 14:26:18;;;;;;;;;;;6.20;99.90;;;;;;5005130;28;20480;-79
2021/12/16 14:50:16;;;;;;;;;;;6.00;99.90;;;;;;5007395;28;19933;-80
2021/12/16 14:52:41;;;;;;;;;;;5.90;99.90;;;;;;5022143;28;19913;-79
2021/12/16 14:55:11;;;;;;;;;;;5.80;99.90;;;;;;4992091;28;19905;-79
2021/12/16 14:57:42;;;;;;;;;;;5.60;99.90;;;;;;5008653;28;19944;-80
2021/12/16 15:00:20;;;;;;;;;;;5.60;99.90;;;;;;4987982;28;19913;-80
2021/12/16 15:02:48;;;;;;;;;;;5.50;99.90;;;;;;4992289;28;19970;-80
2021/12/16 15:05:42;;;;;;;;;;;5.60;99.90;;;;;;5024487;28;19940;-80
2021/12/16 15:08:26;;;;;;;;;;;5.70;99.90;;;;;;5034668;28;20293;-79
2021/12/16 15:10:53;;;;;;;;;;;5.60;99.90;;;;;;5008853;28;19913;-78
2021/12/16 15:13:29;;;;;;;;;;;5.70;99.90;;;;;;5005337;28;19909;-78
2021/12/16 15:16:25;;;;;;;;;;;5.80;99.90;;;;;;4991199;28;19955;-79
2021/12/16 15:38:21;;;;;;;;;;;6.10;99.90;;;;;;5025139;28;20329;-78
2021/12/16 15:40:59;;;;;;;;;;;6.00;99.90;;;;;;5025855;28;20417;-78
2021/12/16 15:43:32;;;;;;;;;;;6.00;99.90;;;;;;5026375;28;19919;-79
2021/12/16 15:45:59;;;;;;;;;;;6.10;99.90;;;;;;5007742;28;19913;-79
2021/12/16 15:48:27;;;;;;;;;;;6.00;99.90;;;;;;5007037;28;20307;-78
2021/12/16 15:50:54;;;;;;;;;;;5.90;99.90;;;;;;5007894;28;19909;-78
2021/12/16 15:53:22;;;;;;;;;;;5.70;99.90;;;;;;4994367;28;19928;-78
2021/12/16 15:55:49;;;;;;;;;;;5.60;99.90;;;;;;5044035;28;19905;-79
2021/12/16 15:58:26;;;;;;;;;;;5.50;99.90;;;;;;5011573;28;19913;-79
2021/12/16 16:00:52;;;;;;;;;;;5.50;99.90;;;;;;5006973;28;20436;-79
2021/12/16 16:03:19;;;;;;;;;;;5.50;99.90;;;;;;5011445;28;20283;-78
2021/12/16 16:05:47;;;;;;;;;;;5.40;99.90;;;;;;5029386;28;20265;-78
2021/12/16 16:08:14;;;;;;;;;;;5.30;99.90;;;;;;5011165;28;19905;-78
2021/12/16 16:10:42;;;;;;;;;;;5.30;99.90;;;;;;5006191;28;19928;-78
2021/12/16 16:13:11;;;;;;;;;;;5.30;99.90;;;;;;5011140;28;19980;-79
2021/12/16 16:15:37;;;;;;;;;;;5.30;99.90;;;;;;5011173;28;19906;-79
2021/12/16 16:18:15;;;;;;;;;;;5.40;99.90;;;;;;5026076;28;19944;-75
2021/12/16 16:20:43;;;;;;;;;;;5.30;99.90;;;;;;5009944;28;19917;-75
2021/12/16 16:23:12;;;;;;;;;;;5.20;99.90;;;;;;5013983;28;19956;-75
2021/12/16 16:25:39;;;;;;;;;;;5.10;99.90;;;;;;5001880;28;19941;-75
2021/12/16 16:28:06;;;;;;;;;;;5.00;99.90;;;;;;4988752;28;19910;-75
2021/12/16 16:30:32;;;;;;;;;;;4.90;99.90;;;;;;5005871;28;19909;-75
2021/12/16 16:33:05;;;;;;;;;;;4.90;99.90;;;;;;4995568;28;19905;-75
2021/12/16 16:35:31;;;;;;;;;;;4.80;99.90;;;;;;4971312;28;19905;-74
2021/12/16 16:38:14;;;;;;;;;;;4.80;99.90;;;;;;5014014;28;19992;-74
2021/12/16 16:40:41;;;;;;;;;;;4.90;99.90;;;;;;5013813;28;20304;-74
2021/12/16 16:43:17;;;;;;;;;;;4.90;99.90;;;;;;4996437;28;20000;-75
2021/12/16 16:45:44;;;;;;;;;;;5.00;99.90;;;;;;5011711;28;20000;-74
2021/12/16 16:48:28;;;;;;;;;;;4.90;99.90;;;;;;4979027;28;19910;-74
2021/12/16 16:51:02;;;;;;;;;;;4.70;99.90;;;;;;5011862;28;19918;-74
2021/12/16 16:53:28;;;;;;;;;;;4.70;99.90;;;;;;4979225;28;20273;-74
2021/12/16 16:55:54;;;;;;;;;;;4.70;99.90;;;;;;4994831;28;20000;-74
2021/12/16 16:58:19;;;;;;;;;;;4.40;99.90;;;;;;4995356;28;19975;-74
2021/12/16 17:00:50;;;;;;;;;;;4.40;99.90;;;;;;4992971;28;20361;-74
2021/12/16 17:03:18;;;;;;;;;;;4.40;99.90;;;;;;4994614;28;19905;-75
2021/12/16 17:05:50;;;;;;;;;;;4.50;99.90;;;;;;5009056;28;19905;-74
2021/12/16 17:08:19;;;;;;;;;;;4.60;99.90;;;;;;5011980;28;19928;-74
2021/12/16 17:10:47;;;;;;;;;;;4.50;99.90;;;;;;4989695;28;19957;-74
2021/12/16 17:13:35;;;;;;;;;;;4.40;99.90;;;;;;5012858;28;19941;-74
2021/12/16 17:18:31;;;;;;;;;;;4.60;99.90;;;;;;4994832;28;19912;-74
2021/12/16 17:20:58;;;;;;;;;;;4.40;99.90;;;;;;5009270;28;19916;-74
2021/12/16 17:23:33;;;;;;;;;;;4.60;99.90;;;;;;4995019;28;19909;-74
2021/12/16 17:25:59;;;;;;;;;;;4.50;99.90;;;;;;4990348;28;19913;-74
2021/12/16 17:28:26;;;;;;;;;;;4.70;99.90;;;;;;4994703;28;19906;-74
2021/12/16 17:30:52;;;;;;;;;;;4.80;99.90;;;;;;4993967;28;19909;-74
2021/12/16 17:33:23;;;;;;;;;;;4.70;99.90;;;;;;4978546;28;19912;-73
2021/12/16 17:35:49;;;;;;;;;;;4.60;99.90;;;;;;5009226;28;20358;-74
2021/12/16 17:38:20;;;;;;;;;;;4.60;99.90;;;;;;5010694;28;19972;-74
2021/12/16 17:40:48;;;;;;;;;;;4.70;99.90;;;;;;5011336;28;19909;-74
2021/12/16 17:43:20;;;;;;;;;;;4.70;99.90;;;;;;5007993;28;19905;-74
2021/12/16 17:45:50;;;;;;;;;;;4.60;99.90;;;;;;5011386;28;19921;-74
2021/12/16 17:48:18;;;;;;;;;;;4.60;99.90;;;;;;4994382;28;20008;-74
2021/12/16 17:51:10;;;;;;;;;;;4.60;99.90;;;;;;5009611;28;20258;-74
2021/12/16 17:53:40;;;;;;;;;;;4.70;99.90;;;;;;4993084;28;19940;-74
2021/12/16 17:56:06;;;;;;;;;;;4.90;99.90;;;;;;5008258;28;19913;-74
2021/12/16 17:58:33;;;;;;;;;;;5.00;99.90;;;;;;5012038;28;19912;-74
2021/12/16 18:01:06;;;;;;;;;;;4.80;99.90;;;;;;5011349;28;19921;-74
2021/12/16 18:03:34;;;;;;;;;;;4.90;99.90;;;;;;5012014;28;19947;-74
2021/12/16 18:06:01;;;;;;;;;;;5.20;99.90;;;;;;4972068;28;19932;-74
2021/12/16 18:08:29;;;;;;;;;;;5.10;99.90;;;;;;4978166;28;20254;-74
2021/12/16 18:10:55;;;;;;;;;;;5.20;99.90;;;;;;4978511;28;19916;-74
2021/12/16 18:13:32;;;;;;;;;;;4.80;99.90;;;;;;4985687;28;19909;-74
2021/12/16 18:15:57;;;;;;;;;;;4.80;99.90;;;;;;5011256;28;19905;-74
2021/12/16 18:18:25;;;;;;;;;;;4.90;99.90;;;;;;4993495;28;19921;-74
2021/12/16 18:20:51;;;;;;;;;;;4.60;99.90;;;;;;5012557;28;20280;-74
2021/12/16 18:23:19;;;;;;;;;;;4.60;99.90;;;;;;5012548;28;19912;-74
2021/12/16 18:25:50;;;;;;;;;;;4.80;99.90;;;;;;5012527;28;20270;-74
2021/12/16 18:28:25;;;;;;;;;;;5.00;99.90;;;;;;5012498;28;20353;-74
2021/12/16 18:30:52;;;;;;;;;;;5.00;99.90;;;;;;4978212;28;19944;-74
2021/12/16 18:33:20;;;;;;;;;;;4.90;99.90;;;;;;5012500;28;20420;-74
2021/12/16 18:35:47;;;;;;;;;;;5.00;99.90;;;;;;4994771;28;19910;-75
2021/12/16 18:38:14;;;;;;;;;;;5.20;99.90;;;;;;5011338;28;19905;-74
2021/12/16 18:40:41;;;;;;;;;;;5.00;99.90;;;;;;4994451;28;20250;-74
2021/12/16 18:43:09;;;;;;;;;;;4.90;99.90;;;;;;5010600;28;20046;-74
2021/12/16 18:45:36;;;;;;;;;;;4.80;99.90;;;;;;4993809;28;20319;-75
2021/12/16 18:55:42;;;;;;;;;;;4.80;99.90;;;;;;5012312;28;19910;-74
2021/12/16 18:58:09;;;;;;;;;;;4.50;99.90;;;;;;5030979;28;19967;-74